createdAt,value
2018-12-29T00:01:42.543Z,75.73
2018-12-29T00:04:16.668Z,104.33
2018-12-29T00:06:49.661Z,124.13
2018-12-29T00:09:22.725Z,101.47
2018-12-29T00:11:55.814Z,99.63
2018-12-29T00:14:28.862Z,136.80
2018-12-29T00:17:01.477Z,99.70
2018-12-29T00:19:34.450Z,115.33
2018-12-29T00:22:08.503Z,131.87
2018-12-29T00:24:53.520Z,90.83
2018-12-29T00:27:44.272Z,83.13
2018-12-29T00:30:21.391Z,101.03
2018-12-29T00:32:54.270Z,94.53
2018-12-29T00:35:26.967Z,142.83
2018-12-29T00:37:59.945Z,111.47
2018-12-29T00:40:32.979Z,105.47
2018-12-29T00:43:06.905Z,93.17
2018-12-29T00:45:39.440Z,125.53
2018-12-29T00:48:12.112Z,96.67
2018-12-29T00:50:59.938Z,100.53
2018-12-29T00:53:32.796Z,93.70
2018-12-29T00:56:05.908Z,108.67
2018-12-29T00:58:38.780Z,69.70
2018-12-29T01:01:12.377Z,90.03
2018-12-29T01:03:44.995Z,103.80
2018-12-29T01:06:19.843Z,89.70
2018-12-29T01:08:56.854Z,116.50
2018-12-29T01:11:29.735Z,75.33
2018-12-29T01:14:02.492Z,152.20
2018-12-29T01:16:35.121Z,104.97
2018-12-29T01:19:14.093Z,89.47
2018-12-29T01:21:50.300Z,91.70
2018-12-29T01:24:23.298Z,152.80
2018-12-29T01:27:00.616Z,148.37
2018-12-29T01:29:34.289Z,117.13
2018-12-29T01:32:07.022Z,103.77
2018-12-29T01:34:41.007Z,101.60
2018-12-29T01:40:07.103Z,103.60
2018-12-29T01:42:40.089Z,107.07
2018-12-29T01:45:19.150Z,115.53
2018-12-29T01:47:53.817Z,119.10
2018-12-29T01:50:27.970Z,111.87
2018-12-29T01:53:03.356Z,94.63
2018-12-29T01:55:43.056Z,117.77
2018-12-29T01:58:15.979Z,127.70
2018-12-29T02:00:48.711Z,122.83
2018-12-29T02:03:22.116Z,146.77
2018-12-29T02:05:55.562Z,122.17
2018-12-29T02:08:31.414Z,108.80
2018-12-29T02:11:05.596Z,112.57
2018-12-29T02:13:38.271Z,100.20
2018-12-29T02:16:11.638Z,151.30
2018-12-29T02:18:48.979Z,126.10
2018-12-29T02:21:21.830Z,119.37
2018-12-29T02:23:54.689Z,110.20
2018-12-29T02:26:27.766Z,114.87
2018-12-29T02:29:01.324Z,113.17
2018-12-29T02:31:34.486Z,94.30
2018-12-29T02:34:07.736Z,107.13
2018-12-29T02:36:41.237Z,143.47
2018-12-29T02:39:13.835Z,121.70
2018-12-29T02:41:48.607Z,124.83
2018-12-29T02:44:25.475Z,112.10
2018-12-29T02:46:58.135Z,107.80
2018-12-29T02:49:36.845Z,111.57
2018-12-29T02:52:09.563Z,115.70
2018-12-29T02:54:42.188Z,95.63
2018-12-29T02:57:18.427Z,107.37
2018-12-29T02:59:50.928Z,119.63
2018-12-29T03:02:24.446Z,151.37
2018-12-29T03:04:57.418Z,132.33
2018-12-29T03:07:30.398Z,110.53
2018-12-29T03:10:03.434Z,148.33
2018-12-29T03:12:36.083Z,148.07
2018-12-29T03:15:08.953Z,139.47
2018-12-29T03:17:42.145Z,112.70
2018-12-29T03:20:16.831Z,141.37
2018-12-29T03:22:53.434Z,97.60
2018-12-29T03:25:26.618Z,111.30
2018-12-29T03:28:01.036Z,120.93
2018-12-29T03:30:33.651Z,151.03
2018-12-29T03:33:10.596Z,123.40
2018-12-29T03:35:43.710Z,127.37
2018-12-29T03:38:17.007Z,121.50
2018-12-29T03:40:49.796Z,140.13
2018-12-29T03:43:21.150Z,131.67
2018-12-29T03:45:53.825Z,149.90
2018-12-29T03:48:26.853Z,119.87
2018-12-29T03:51:06.266Z,114.10
2018-12-29T03:53:39.312Z,134.87
2018-12-29T03:56:12.057Z,109.57
2018-12-29T03:58:45.080Z,131.10
2018-12-29T04:01:18.193Z,103.00
2018-12-29T04:03:51.092Z,123.70
2018-12-29T04:06:23.531Z,141.13
2018-12-29T04:10:01.104Z,135.40
2018-12-29T04:12:39.895Z,102.73
2018-12-29T04:15:15.203Z,142.90
2018-12-29T04:17:47.567Z,121.33
2018-12-29T04:20:21.204Z,103.77
2018-12-29T04:22:53.666Z,105.17
2018-12-29T04:25:27.766Z,142.07
2018-12-29T04:28:01.237Z,108.73
2018-12-29T04:30:34.267Z,116.63
2018-12-29T04:33:08.224Z,109.50
2018-12-29T04:35:41.388Z,114.50
2018-12-29T04:38:14.770Z,117.73
2018-12-29T04:40:47.634Z,101.83
2018-12-29T04:43:20.689Z,101.00
2018-12-29T04:45:54.394Z,118.20
2018-12-29T04:48:27.332Z,101.90
2018-12-29T04:51:00.736Z,125.37
2018-12-29T04:53:34.733Z,95.80
2018-12-29T04:56:12.976Z,115.40
2018-12-29T04:58:49.930Z,97.23
2018-12-29T05:01:22.319Z,116.40
2018-12-29T05:03:55.143Z,71.50
2018-12-29T05:06:28.458Z,90.20
2018-12-29T05:09:08.869Z,101.80
2018-12-29T05:11:41.991Z,93.67
2018-12-29T05:14:14.886Z,94.00
2018-12-29T05:16:47.166Z,98.73
2018-12-29T05:19:20.596Z,93.43
2018-12-29T05:22:00.604Z,124.63
2018-12-29T05:24:33.866Z,119.77
2018-12-29T05:27:06.948Z,112.33
2018-12-29T05:29:43.878Z,112.70
2018-12-29T05:32:17.093Z,94.37
2018-12-29T05:34:50.092Z,108.90
2018-12-29T05:37:27.348Z,127.93
2018-12-29T05:40:00.371Z,84.87
2018-12-29T05:42:33.545Z,122.30
2018-12-29T05:45:07.087Z,93.03
2018-12-29T05:47:40.241Z,98.50
2018-12-29T05:50:13.374Z,106.80
2018-12-29T05:52:46.203Z,86.60
2018-12-29T05:55:20.014Z,105.13
2018-12-29T05:58:17.394Z,89.67
2018-12-29T06:00:50.703Z,78.67
2018-12-29T06:03:23.454Z,103.77
2018-12-29T06:05:56.696Z,130.37
2018-12-29T06:08:29.554Z,93.73
2018-12-29T06:11:02.609Z,104.00
2018-12-29T06:13:35.517Z,81.57
2018-12-29T06:16:08.898Z,114.77
2018-12-29T06:21:23.032Z,129.70
2018-12-29T06:23:57.010Z,133.97
2018-12-29T06:26:29.976Z,108.50
2018-12-29T06:29:04.174Z,130.40
2018-12-29T06:31:46.204Z,131.00
2018-12-29T06:34:22.986Z,78.80
2018-12-29T06:36:56.304Z,119.83
2018-12-29T06:39:29.585Z,185.30
2018-12-29T06:42:04.352Z,113.17
2018-12-29T06:44:40.098Z,108.47
2018-12-29T06:47:12.778Z,101.43
2018-12-29T07:04:18.844Z,145.70
2018-12-29T07:06:51.431Z,111.20
2018-12-29T07:09:29.466Z,153.10
2018-12-29T07:12:02.502Z,105.73
2018-12-29T07:14:36.770Z,141.67
2018-12-29T07:17:17.296Z,138.37
2018-12-29T07:19:54.434Z,110.23
2018-12-29T07:22:39.541Z,117.53
2018-12-29T07:25:17.970Z,156.03
2018-12-29T07:27:51.329Z,143.73
2018-12-29T07:30:25.257Z,163.30
2018-12-29T07:33:00.258Z,171.27
2018-12-29T07:35:38.777Z,126.57
2018-12-29T07:38:12.776Z,116.00
2018-12-29T07:40:46.296Z,115.87
2018-12-29T07:43:24.373Z,130.87
2018-12-29T07:46:04.223Z,150.37
2018-12-29T07:48:37.381Z,142.33
2018-12-29T07:51:11.193Z,116.83
2018-12-29T07:53:44.785Z,120.43
2018-12-29T07:56:17.528Z,156.83
2018-12-29T07:58:50.662Z,109.13
2018-12-29T08:01:23.790Z,134.77
2018-12-29T08:03:56.195Z,145.03
2018-12-29T08:06:29.355Z,94.00
2018-12-29T08:11:39.869Z,134.27
2018-12-29T08:14:14.825Z,160.67
2018-12-29T08:16:47.627Z,176.50
2018-12-29T08:19:20.153Z,128.97
2018-12-29T08:21:53.849Z,161.33
2018-12-29T08:24:27.177Z,167.27
2018-12-29T08:27:00.065Z,146.33
2018-12-29T08:29:33.241Z,156.87
2018-12-29T08:32:06.125Z,136.23
2018-12-29T08:34:39.163Z,173.13
2018-12-29T08:37:15.885Z,167.57
2018-12-29T08:39:49.152Z,143.20
2018-12-29T08:42:21.973Z,142.73
2018-12-29T08:44:55.141Z,130.30
2018-12-29T08:47:28.603Z,132.17
2018-12-29T08:50:02.122Z,89.30
2018-12-29T08:52:34.913Z,110.67
2018-12-29T08:55:11.802Z,147.57
2018-12-29T08:57:44.814Z,125.17
2018-12-29T09:00:17.849Z,174.33
2018-12-29T09:02:54.318Z,117.33
2018-12-29T09:05:27.271Z,151.27
2018-12-29T09:08:00.057Z,118.07
2018-12-29T09:10:33.163Z,144.50
2018-12-29T09:13:05.780Z,126.83
2018-12-29T09:15:39.293Z,163.03
2018-12-29T09:18:12.292Z,139.17
2018-12-29T09:20:46.703Z,136.03
2018-12-29T09:23:19.508Z,147.20
2018-12-29T09:25:52.428Z,124.40
2018-12-29T09:28:25.395Z,132.70
2018-12-29T09:30:58.600Z,136.20
2018-12-29T09:33:31.301Z,156.57
2018-12-29T09:36:04.769Z,142.60
2018-12-29T09:38:38.014Z,145.43
2018-12-29T09:41:10.890Z,138.27
2018-12-29T09:43:44.139Z,154.27
2018-12-29T09:46:17.273Z,141.00
2018-12-29T09:48:50.714Z,189.23
2018-12-29T09:51:23.047Z,150.03
2018-12-29T09:53:56.379Z,110.73
2018-12-29T09:56:28.980Z,142.43
2018-12-29T09:59:01.917Z,135.63
2018-12-29T10:01:34.321Z,161.93
2018-12-29T10:04:07.641Z,127.53
2018-12-29T10:06:41.978Z,123.23
2018-12-29T10:09:15.338Z,152.50
2018-12-29T10:11:48.484Z,159.83
2018-12-29T10:14:21.434Z,173.17
2018-12-29T10:16:54.841Z,171.53
2018-12-29T10:19:27.485Z,126.50
2018-12-29T10:22:01.120Z,134.87
2018-12-29T10:24:33.609Z,186.90
2018-12-29T10:27:06.844Z,156.43
2018-12-29T10:29:41.816Z,151.47
2018-12-29T10:32:14.193Z,164.50
2018-12-29T10:34:46.629Z,138.97
2018-12-29T10:37:19.990Z,194.20
2018-12-29T10:39:57.341Z,114.70
2018-12-29T10:42:30.767Z,168.13
2018-12-29T10:45:03.177Z,165.67
2018-12-29T10:47:37.233Z,135.90
2018-12-29T10:50:13.549Z,163.90
2018-12-29T10:52:52.466Z,175.70
2018-12-29T10:55:25.817Z,160.53
2018-12-29T10:58:07.814Z,165.03
2018-12-29T11:00:40.717Z,192.03
2018-12-29T11:03:23.029Z,160.37
2018-12-29T11:05:56.151Z,164.37
2018-12-29T11:08:30.294Z,149.07
2018-12-29T11:11:03.137Z,162.07
2018-12-29T11:13:41.054Z,190.80
2018-12-29T11:16:23.687Z,149.27
2018-12-29T11:18:59.285Z,117.23
2018-12-29T11:21:39.193Z,131.93
2018-12-29T11:24:13.910Z,121.50
2018-12-29T11:26:47.224Z,152.63
2018-12-29T11:29:27.339Z,138.47
2018-12-29T11:45:20.013Z,161.20
2018-12-29T11:48:53.559Z,120.73
2018-12-29T11:51:32.844Z,168.40
2018-12-29T11:54:05.893Z,119.43
2018-12-29T11:56:54.846Z,131.30
2018-12-29T11:59:40.978Z,130.77
2018-12-29T12:02:33.995Z,104.93
2018-12-29T12:08:02.823Z,106.30
2018-12-29T12:10:48.938Z,89.23
2018-12-29T12:13:57.746Z,98.77
2018-12-29T12:19:59.774Z,98.87
2018-12-29T12:26:11.859Z,98.97
2018-12-29T12:29:04.715Z,90.43
2018-12-29T12:31:38.943Z,77.80
2018-12-29T12:34:41.924Z,85.20
2018-12-29T12:40:22.413Z,110.63
2018-12-29T12:43:30.827Z,93.93
2018-12-29T12:49:30.114Z,90.10
2018-12-29T12:52:13.740Z,84.30
2018-12-29T12:58:01.260Z,92.47
2018-12-29T13:03:32.335Z,86.10
2018-12-29T13:06:14.646Z,79.30
2018-12-29T13:16:06.149Z,90.80
2018-12-29T13:18:57.177Z,80.27
2018-12-29T13:21:51.136Z,81.87
2018-12-29T13:24:50.045Z,79.53
2018-12-29T13:27:38.442Z,66.37
2018-12-29T13:30:15.428Z,106.87
2018-12-29T13:35:38.878Z,73.20
2018-12-29T13:41:45.374Z,84.20
2018-12-29T13:47:06.101Z,90.03
2018-12-29T13:49:50.999Z,69.20
2018-12-29T13:52:41.819Z,86.80
2018-12-29T13:55:31.618Z,56.60
2018-12-29T13:58:10.217Z,68.50
2018-12-29T14:00:50.204Z,80.90
2018-12-29T14:03:46.138Z,58.00
2018-12-29T14:06:25.254Z,71.57
2018-12-29T14:09:09.144Z,73.17
2018-12-29T14:14:33.480Z,68.43
2018-12-29T14:17:40.701Z,42.27
2018-12-29T14:20:19.601Z,70.47
2018-12-29T14:23:12.863Z,48.93
2018-12-29T14:25:50.956Z,56.03
2018-12-29T14:28:24.132Z,41.20
2018-12-29T14:30:57.009Z,55.53
2018-12-29T14:33:30.037Z,68.00
2018-12-29T14:36:02.765Z,68.00
2018-12-29T14:38:36.725Z,70.40
2018-12-29T14:41:10.282Z,53.47
2018-12-29T14:43:55.515Z,69.83
2018-12-29T14:46:28.733Z,52.33
2018-12-29T14:49:01.507Z,43.57
2018-12-29T14:51:34.945Z,46.00
2018-12-29T14:54:07.805Z,54.90
2018-12-29T14:56:40.926Z,64.17
2018-12-29T14:59:18.973Z,39.40
2018-12-29T15:01:56.901Z,26.70
2018-12-29T15:04:34.169Z,38.70
2018-12-29T15:07:07.100Z,55.37
2018-12-29T15:09:39.968Z,66.60
2018-12-29T15:12:14.407Z,46.83
2018-12-29T15:14:47.229Z,54.40
2018-12-29T15:17:26.534Z,53.47
2018-12-29T15:20:00.166Z,58.77
2018-12-29T15:22:34.948Z,47.60
2018-12-29T15:25:07.765Z,47.17
2018-12-29T15:27:41.395Z,45.27
2018-12-29T15:30:15.646Z,38.17
2018-12-29T15:32:51.733Z,29.60
2018-12-29T15:35:24.922Z,33.33
2018-12-29T15:37:57.942Z,34.40
2018-12-29T15:40:32.354Z,34.93
2018-12-29T15:45:44.529Z,36.07
2018-12-29T15:48:17.589Z,42.57
2018-12-29T15:50:50.605Z,39.73
2018-12-29T15:53:26.290Z,36.30
2018-12-29T15:56:01.485Z,27.63
2018-12-29T15:58:37.985Z,46.67
2018-12-29T16:01:14.269Z,29.57
2018-12-29T16:03:49.297Z,29.27
2018-12-29T16:06:23.765Z,38.50
2018-12-29T16:09:04.829Z,42.77
2018-12-29T16:11:40.385Z,34.93
2018-12-29T16:14:15.789Z,29.47
2018-12-29T16:16:55.125Z,34.60
2018-12-29T16:24:37.169Z,22.30
2018-12-29T16:27:16.512Z,34.07
2018-12-29T16:29:53.353Z,20.53
2018-12-29T16:32:25.833Z,28.07
2018-12-29T16:35:10.578Z,27.60
2018-12-29T16:37:52.533Z,24.87
2018-12-29T16:40:33.805Z,34.33
2018-12-29T16:43:28.776Z,35.43
2018-12-29T16:46:12.789Z,30.43
2018-12-29T16:48:51.254Z,17.33
2018-12-29T16:51:27.867Z,26.07
2018-12-29T16:54:05.773Z,21.63
2018-12-29T16:56:38.786Z,34.47
2018-12-29T16:59:12.459Z,33.07
2018-12-29T17:01:46.710Z,41.10
2018-12-29T17:04:19.505Z,37.40
2018-12-29T17:06:52.587Z,42.07
2018-12-29T17:09:25.549Z,41.73
2018-12-29T17:11:59.300Z,32.80
2018-12-29T17:14:33.233Z,38.17
2018-12-29T17:17:07.255Z,52.73
2018-12-29T17:19:43.316Z,47.27
2018-12-29T17:22:19.508Z,44.07
2018-12-29T17:24:55.367Z,36.57
2018-12-29T17:30:32.049Z,40.90
2018-12-29T17:33:25.877Z,47.10
2018-12-29T17:36:17.511Z,20.53
2018-12-29T17:38:55.385Z,42.43
2018-12-29T17:41:28.576Z,49.23
2018-12-29T17:44:01.187Z,45.33
2018-12-29T17:46:43.257Z,50.20
2018-12-29T17:51:57.258Z,53.43
2018-12-29T17:54:29.894Z,55.63
2018-12-29T17:57:06.734Z,54.50
2018-12-29T17:59:39.633Z,64.70
2018-12-29T18:02:12.518Z,57.57
2018-12-29T18:04:45.345Z,54.47
2018-12-29T18:07:18.345Z,51.97
2018-12-29T18:09:57.164Z,71.50
2018-12-29T18:12:27.429Z,54.37
2018-12-29T18:15:00.292Z,46.37
2018-12-29T18:17:33.633Z,60.03
2018-12-29T18:20:06.773Z,86.13
2018-12-29T18:22:43.844Z,68.37
2018-12-29T18:25:16.585Z,93.53
2018-12-29T18:27:50.152Z,70.20
2018-12-29T18:30:23.681Z,82.77
2018-12-29T18:32:58.310Z,47.10
2018-12-29T18:35:32.529Z,45.73
2018-12-29T18:38:09.749Z,70.43
2018-12-29T18:40:49.491Z,44.03
2018-12-29T18:43:25.634Z,55.57
2018-12-29T18:46:05.502Z,66.27
2018-12-29T18:48:38.597Z,48.00
2018-12-29T18:51:12.497Z,53.67
2018-12-29T18:53:45.789Z,63.13
2018-12-29T18:56:18.719Z,62.17
2018-12-29T18:59:08.726Z,41.70
2018-12-29T19:01:57.822Z,50.73
2018-12-29T19:04:33.749Z,50.20
2018-12-29T19:07:19.957Z,59.70
2018-12-29T19:09:53.738Z,62.43
2018-12-29T19:12:27.062Z,50.60
2018-12-29T19:15:07.085Z,77.47
2018-12-29T19:17:45.893Z,53.23
2018-12-29T19:20:20.346Z,61.87
2018-12-29T19:23:11.636Z,40.73
2018-12-29T19:25:47.964Z,30.20
2018-12-29T19:28:21.046Z,37.83
2018-12-29T19:33:39.583Z,17.30
2018-12-29T19:36:12.753Z,31.13
2018-12-29T19:38:45.752Z,32.60
2018-12-29T19:41:23.704Z,44.67
2018-12-29T19:43:57.844Z,44.77
2018-12-29T19:46:31.801Z,22.30
2018-12-29T19:49:10.541Z,41.77
2018-12-29T19:52:02.608Z,34.13
2018-12-29T19:54:39.731Z,13.40
2018-12-29T19:57:15.644Z,30.93
2018-12-29T19:59:54.981Z,11.73
2018-12-29T20:05:43.818Z,12.47
2018-12-29T20:08:19.637Z,10.57
2018-12-29T20:10:54.598Z,9.60
2018-12-29T20:13:28.629Z,8.70
2018-12-29T20:16:03.497Z,10.63
2018-12-29T20:18:50.097Z,5.17
2018-12-29T20:21:24.129Z,12.07
2018-12-29T20:23:56.998Z,15.23
2018-12-29T20:26:29.801Z,7.90
2018-12-29T20:29:02.958Z,9.20
2018-12-29T20:31:36.701Z,10.43
2018-12-29T20:34:17.702Z,8.80
2018-12-29T20:36:53.149Z,4.97
2018-12-29T20:42:34.378Z,24.27
2018-12-29T20:48:46.680Z,11.53
2018-12-29T20:51:19.717Z,14.40
2018-12-29T20:53:58.187Z,20.53
2018-12-29T20:56:31.898Z,9.97
2018-12-29T20:59:05.874Z,39.03
2018-12-29T21:01:38.717Z,12.83
2018-12-29T21:04:11.882Z,12.17
2018-12-29T21:06:45.624Z,27.77
2018-12-29T21:09:18.748Z,28.27
2018-12-29T21:11:53.203Z,19.37
2018-12-29T21:14:30.861Z,17.87
2018-12-29T21:17:04.541Z,19.60
2018-12-29T21:19:39.073Z,22.07
2018-12-29T21:22:12.925Z,21.30
2018-12-29T21:24:46.605Z,10.50
2018-12-29T21:27:21.225Z,15.20
2018-12-29T21:30:03.283Z,27.37
2018-12-29T21:32:46.830Z,13.57
2018-12-29T21:53:32.963Z,18.43
2018-12-29T21:56:06.797Z,9.80
2018-12-29T21:58:45.425Z,11.87
2018-12-29T22:01:18.782Z,42.47
2018-12-29T22:03:52.012Z,17.53
2018-12-29T22:06:24.858Z,34.67
2018-12-29T22:08:57.564Z,24.93
2018-12-29T22:11:30.594Z,20.37
2018-12-29T22:14:03.585Z,14.77
2018-12-29T22:16:36.504Z,35.40
2018-12-29T22:19:09.719Z,7.43
2018-12-29T22:21:42.777Z,11.30
2018-12-29T22:24:16.884Z,4.07
2018-12-29T22:26:51.562Z,16.60
2018-12-29T22:29:24.997Z,19.00
2018-12-29T22:31:58.297Z,32.30
2018-12-29T22:34:30.897Z,7.23
2018-12-29T22:37:08.013Z,13.63
2018-12-29T22:39:41.098Z,44.37
2018-12-29T22:42:14.474Z,14.70
2018-12-29T22:44:47.266Z,20.83
2018-12-29T22:47:20.273Z,26.73
2018-12-29T22:49:53.498Z,21.03
2018-12-29T22:52:27.508Z,26.97
2018-12-29T22:55:02.633Z,30.47
2018-12-29T22:57:36.255Z,30.60
2018-12-29T23:00:14.493Z,7.33
2018-12-29T23:02:47.333Z,17.07
2018-12-29T23:05:20.153Z,14.77
2018-12-29T23:07:53.093Z,8.87
2018-12-29T23:10:26.545Z,6.90
2018-12-29T23:12:59.097Z,30.57
2018-12-29T23:15:32.118Z,17.47
2018-12-29T23:18:05.578Z,21.47
2018-12-29T23:20:38.986Z,20.17
2018-12-29T23:23:12.214Z,14.40
2018-12-29T23:25:45.857Z,42.37
2018-12-29T23:28:18.393Z,12.40
2018-12-29T23:30:51.849Z,20.10
2018-12-29T23:33:24.549Z,11.17
2018-12-29T23:35:57.489Z,19.20
2018-12-29T23:38:30.493Z,11.40
2018-12-29T23:41:03.897Z,13.33
2018-12-29T23:43:37.129Z,24.27
2018-12-29T23:46:10.051Z,21.33
2018-12-29T23:48:42.869Z,26.37
2018-12-29T23:51:16.409Z,14.80
